Time;durP1;ratioP1;P1;durP2;ratioP2;P2;SDS_P1;SDS_P2;PMS_P1;PMS_P2;Temp;Humidity;BMP_temperature;BMP_pressure;BME280_temperature;BME280_humidity;BME280_pressure;Samples;Min_cycle;Max_cycle;Signal;HPM_P1;HPM_P2
2023/08/24 00:08:59;;;;;;;12.13;7.78;;;;;;;24.10;100.00;100688.97;20971026;28;20106;-72
2023/08/24 00:19:24;;;;;;;14.88;7.80;;;;;;;23.83;100.00;100699.94;20956671;28;20045;-72
2023/08/24 00:29:46;;;;;;;14.30;8.23;;;;;;;23.83;100.00;100694.53;20903984;28;20060;-72
2023/08/24 00:40:12;;;;;;;13.10;8.57;;;;;;;23.98;100.00;100695.75;20961850;28;20033;-72
2023/08/24 00:50:35;;;;;;;10.50;7.57;;;;;;;23.92;100.00;100689.72;20950709;28;20392;-72
2023/08/24 01:00:59;;;;;;;11.82;7.53;;;;;;;23.89;100.00;100671.88;20949279;28;20447;-72
2023/08/24 01:11:33;;;;;;;10.48;7.38;;;;;;;23.87;100.00;100680.94;20961569;28;20052;-73
2023/08/24 01:22:02;;;;;;;12.70;8.15;;;;;;;23.76;100.00;100673.31;20946458;28;20136;-72
2023/08/24 01:32:27;;;;;;;12.70;8.20;;;;;;;23.63;100.00;100680.97;20944788;28;20053;-73
2023/08/24 01:42:56;;;;;;;14.20;7.80;;;;;;;23.61;100.00;100693.66;20960250;28;20051;-73
2023/08/24 01:53:23;;;;;;;14.20;8.77;;;;;;;23.62;100.00;100683.75;20937899;28;20044;-72
2023/08/24 02:03:45;;;;;;;13.23;8.73;;;;;;;23.46;100.00;100675.34;20976767;28;20060;-72
2023/08/24 02:14:09;;;;;;;10.55;8.05;;;;;;;23.38;100.00;100674.75;20947709;28;20040;-72
2023/08/24 02:24:33;;;;;;;13.50;8.68;;;;;;;23.32;100.00;100675.88;20948484;28;20465;-73
2023/08/24 02:34:58;;;;;;;12.82;8.60;;;;;;;23.27;100.00;100691.34;20944072;28;20043;-73
2023/08/24 02:45:21;;;;;;;10.73;7.72;;;;;;;23.26;100.00;100691.38;20960318;28;20443;-72
2023/08/24 02:55:45;;;;;;;12.38;8.43;;;;;;;23.21;100.00;100690.69;20957890;28;20074;-73
2023/08/24 03:06:09;;;;;;;11.77;8.27;;;;;;;23.10;100.00;100693.78;20962053;28;20396;-72
2023/08/24 03:16:35;;;;;;;14.95;9.55;;;;;;;23.05;100.00;100696.63;20981863;28;20063;-72
2023/08/24 03:26:58;;;;;;;12.73;8.48;;;;;;;22.97;100.00;100685.25;20951003;28;20061;-72
2023/08/24 03:37:23;;;;;;;16.13;9.70;;;;;;;22.98;100.00;100697.78;20955828;28;20048;-72
2023/08/24 03:47:46;;;;;;;16.13;10.77;;;;;;;22.96;100.00;100707.75;20969796;28;20048;-72
2023/08/24 03:58:11;;;;;;;18.23;9.98;;;;;;;23.03;100.00;100716.50;20941666;28;20442;-72
2023/08/24 04:08:35;;;;;;;18.25;9.30;;;;;;;23.22;100.00;100712.19;20976263;28;20076;-72
2023/08/24 04:19:00;;;;;;;17.17;9.38;;;;;;;23.56;100.00;100716.34;20952131;28;20048;-72
2023/08/24 04:29:23;;;;;;;12.93;7.60;;;;;;;24.10;100.00;100714.13;20952732;28;20048;-72
2023/08/24 04:39:47;;;;;;;12.45;7.53;;;;;;;24.62;100.00;100710.13;20988272;28;20055;-73
2023/08/24 04:50:10;;;;;;;14.82;6.88;;;;;;;25.22;100.00;100719.22;20960542;28;20549;-72
2023/08/24 05:00:34;;;;;;;10.77;6.30;;;;;;;26.02;100.00;100729.88;20954593;28;20040;-73
2023/08/24 05:10:57;;;;;;;13.35;6.03;;;;;;;26.83;100.00;100722.16;20987874;28;20056;-72
2023/08/24 05:21:21;;;;;;;15.88;6.00;;;;;;;27.79;100.00;100711.53;20955677;28;20050;-73
2023/08/24 05:31:43;;;;;;;14.00;6.32;;;;;;;28.79;100.00;100713.84;20954334;28;20106;-72
2023/08/24 05:42:09;;;;;;;12.55;5.93;;;;;;;29.85;100.00;100722.56;20948519;28;20053;-73
2023/08/24 05:52:31;;;;;;;17.27;6.73;;;;;;;30.89;100.00;100724.66;20937462;28;20044;-73
2023/08/24 06:02:56;;;;;;;12.32;5.70;;;;;;;31.95;91.45;100735.28;20947765;28;20049;-73
2023/08/24 06:13:19;;;;;;;10.53;5.73;;;;;;;32.51;73.56;100738.34;20948391;28;20158;-73
2023/08/24 06:23:44;;;;;;;9.43;5.97;;;;;;;33.02;62.44;100733.47;20956485;28;20393;-73
2023/08/24 06:34:08;;;;;;;11.57;5.75;;;;;;;33.58;51.82;100734.47;20941860;28;20075;-73
2023/08/24 06:44:32;;;;;;;12.10;5.47;;;;;;;33.99;52.67;100739.34;20975006;28;20093;-74
2023/08/24 06:54:56;;;;;;;9.13;5.85;;;;;;;34.08;47.22;100741.31;20962541;28;20102;-73
2023/08/24 07:05:20;;;;;;;10.57;5.17;;;;;;;34.42;46.79;100738.53;20966777;28;20047;-73
2023/08/24 07:15:43;;;;;;;11.85;5.43;;;;;;;34.89;43.98;100732.63;20951117;28;20332;-72
2023/08/24 07:26:08;;;;;;;13.70;5.20;;;;;;;35.37;42.83;100737.59;20974489;28;20140;-73
2023/08/24 07:36:31;;;;;;;11.52;4.95;;;;;;;35.30;41.16;100741.91;20974090;28;20448;-73
2023/08/24 07:46:55;;;;;;;9.45;5.47;;;;;;;35.50;39.68;100741.00;20966587;28;20450;-73
2023/08/24 07:57:17;;;;;;;10.50;4.88;;;;;;;35.63;40.44;100743.53;20970807;28;20409;-72
2023/08/24 08:07:41;;;;;;;10.05;5.13;;;;;;;35.64;42.57;100739.78;20974291;28;20053;-73
2023/08/24 08:18:04;;;;;;;10.43;4.55;;;;;;;35.72;44.94;100732.59;20971945;28;20568;-73
2023/08/24 08:28:28;;;;;;;7.97;5.60;;;;;;;35.58;47.57;100733.78;20957832;28;20044;-73
2023/08/24 08:38:50;;;;;;;11.13;5.30;;;;;;;35.72;47.94;100740.84;20957006;28;20044;-73
2023/08/24 08:49:17;;;;;;;11.48;6.20;;;;;;;36.27;48.54;100744.97;20995402;28;20070;-73
2023/08/24 08:59:40;;;;;;;11.10;6.53;;;;;;;36.44;48.04;100746.13;20955303;28;20033;-73
2023/08/24 09:10:07;;;;;;;9.40;6.20;;;;;;;36.97;46.10;100743.84;20989903;28;20578;-73
2023/08/24 09:20:29;;;;;;;12.90;5.78;;;;;;;37.23;45.24;100754.28;20967939;28;20050;-73
2023/08/24 09:30:55;;;;;;;10.90;5.83;;;;;;;37.63;43.82;100743.03;20964743;28;20150;-73
2023/08/24 09:41:18;;;;;;;10.07;6.00;;;;;;;37.84;42.69;100746.44;20992587;28;20447;-73
2023/08/24 09:51:44;;;;;;;12.60;6.78;;;;;;;37.79;43.63;100741.38;20942244;28;20109;-73
2023/08/24 10:02:17;;;;;;;9.80;6.25;;;;;;;38.04;42.65;100722.41;20948381;28;20044;-73
2023/08/24 10:12:48;;;;;;;11.15;6.95;;;;;;;37.85;41.31;100727.00;20984959;28;20143;-73
2023/08/24 10:23:13;;;;;;;11.13;6.85;;;;;;;37.72;43.45;100720.97;20914533;28;20059;-72
2023/08/24 10:33:37;;;;;;;9.70;7.18;;;;;;;37.50;43.79;100718.53;20961762;28;20127;-73
2023/08/24 10:44:08;;;;;;;18.25;7.80;;;;;;;37.47;42.83;100716.09;20939388;28;20129;-74
2023/08/24 10:54:32;;;;;;;12.23;7.35;;;;;;;37.48;41.72;100710.41;20949832;28;20041;-72
2023/08/24 11:05:15;;;;;;;12.13;7.77;;;;;;;37.42;40.94;100715.66;20956437;28;20076;-73
2023/08/24 11:15:44;;;;;;;13.55;8.15;;;;;;;37.16;41.37;100714.56;20973757;28;20435;-74
2023/08/24 11:26:06;;;;;;;12.75;8.13;;;;;;;37.03;41.84;100721.22;20956803;28;20064;-72
2023/08/24 11:36:33;;;;;;;17.20;8.73;;;;;;;37.16;42.11;100711.81;20958232;28;20059;-73
2023/08/24 11:46:58;;;;;;;11.68;8.50;;;;;;;37.19;42.11;100703.28;20962420;28;20049;-73
2023/08/24 11:57:22;;;;;;;14.85;7.80;;;;;;;37.01;41.61;100683.88;20966883;28;20501;-73
2023/08/24 12:07:46;;;;;;;11.95;8.25;;;;;;;36.98;40.55;100673.13;20965368;28;20075;-73
2023/08/24 12:18:11;;;;;;;11.43;8.47;;;;;;;36.80;40.02;100674.91;20959403;28;20048;-73
2023/08/24 12:28:34;;;;;;;13.68;8.50;;;;;;;36.56;41.92;100678.94;20953240;28;20045;-73
2023/08/24 12:38:59;;;;;;;14.15;8.23;;;;;;;36.27;44.15;100675.31;20951895;28;20135;-73
2023/08/24 12:49:21;;;;;;;13.23;8.23;;;;;;;36.12;44.54;100665.72;20896072;28;20150;-73
2023/08/24 12:59:47;;;;;;;13.57;8.05;;;;;;;36.02;44.77;100665.72;20936214;28;20350;-73
2023/08/24 13:10:11;;;;;;;12.05;7.45;;;;;;;35.53;43.21;100656.41;20946957;28;20052;-74
2023/08/24 13:20:35;;;;;;;10.98;7.35;;;;;;;35.37;43.35;100666.19;20936003;28;20060;-73
2023/08/24 13:30:57;;;;;;;13.05;7.68;;;;;;;35.08;43.22;100655.91;20926621;28;20578;-73
2023/08/24 13:41:21;;;;;;;14.57;9.23;;;;;;;34.99;46.08;100656.69;20958307;28;20086;-73
2023/08/24 13:51:44;;;;;;;14.80;8.77;;;;;;;34.66;53.76;100656.88;20929291;28;20484;-74
2023/08/24 14:02:08;;;;;;;16.00;9.25;;;;;;;34.66;55.37;100665.97;20938630;28;20052;-69
2023/08/24 14:12:31;;;;;;;15.57;8.65;;;;;;;34.82;52.01;100657.31;20976463;28;20048;-70
2023/08/24 14:22:55;;;;;;;13.77;8.18;;;;;;;34.99;49.62;100650.34;20957572;28;20500;-70
2023/08/24 14:33:17;;;;;;;16.80;8.57;;;;;;;34.76;50.71;100661.47;20958641;28;20048;-74
2023/08/24 14:43:42;;;;;;;11.27;7.38;;;;;;;34.31;49.90;100669.03;20959345;28;20045;-74
2023/08/24 14:54:07;;;;;;;15.50;7.78;;;;;;;33.88;50.93;100665.38;20956163;28;20137;-71
2023/08/24 15:04:31;;;;;;;10.73;7.47;;;;;;;33.47;52.63;100666.03;20964028;28;20044;-72
2023/08/24 15:15:02;;;;;;;14.05;6.95;;;;;;;33.09;51.40;100672.66;20949930;28;20524;-71
2023/08/24 15:25:26;;;;;;;12.85;7.20;;;;;;;32.72;50.67;100666.50;20959782;28;20052;-72
2023/08/24 15:35:50;;;;;;;12.35;7.03;;;;;;;32.44;48.77;100666.88;20942892;28;20048;-72
2023/08/24 15:46:15;;;;;;;14.95;7.35;;;;;;;32.31;48.51;100663.34;20955475;28;20129;-71
2023/08/24 15:56:38;;;;;;;14.27;7.18;;;;;;;32.11;49.26;100666.69;20936242;28;20045;-71
2023/08/24 16:07:03;;;;;;;10.43;7.10;;;;;;;31.86;50.51;100675.84;20946797;28;20044;-72
2023/08/24 16:17:25;;;;;;;12.80;7.05;;;;;;;31.64;50.32;100679.28;20965114;28;20040;-72
2023/08/24 16:27:50;;;;;;;11.20;6.22;;;;;;;31.46;49.94;100686.06;20992431;28;20098;-72
2023/08/24 16:38:13;;;;;;;12.93;7.20;;;;;;;31.25;50.31;100686.63;20964117;28;20140;-72
2023/08/24 16:48:37;;;;;;;12.35;6.63;;;;;;;31.03;51.12;100690.97;20955950;28;20138;-71
2023/08/24 16:58:59;;;;;;;13.07;7.32;;;;;;;30.80;52.26;100701.63;20960660;28;20051;-72
2023/08/24 17:09:23;;;;;;;15.80;7.68;;;;;;;30.57;53.92;100710.53;20955957;28;20048;-72
2023/08/24 17:19:46;;;;;;;16.92;7.20;;;;;;;30.29;60.09;100713.31;20958697;28;20093;-72
2023/08/24 17:30:11;;;;;;;13.32;7.20;;;;;;;30.04;62.28;100716.81;20954396;28;20056;-72
2023/08/24 17:40:34;;;;;;;17.90;7.93;;;;;;;29.79;65.75;100727.53;20952794;28;20048;-71
2023/08/24 17:51:01;;;;;;;11.55;8.55;;;;;;;29.60;66.91;100727.84;20964839;28;20048;-72
2023/08/24 18:01:24;;;;;;;16.37;9.07;;;;;;;29.42;68.72;100726.28;20961320;28;20419;-71
2023/08/24 18:11:48;;;;;;;12.95;8.20;;;;;;;29.21;71.26;100729.34;20955561;28;20056;-71
2023/08/24 18:22:10;;;;;;;15.95;9.10;;;;;;;28.96;73.64;100745.41;20938007;28;20110;-71
2023/08/24 18:32:34;;;;;;;14.63;8.90;;;;;;;28.80;74.55;100731.03;20941495;28;20055;-71
2023/08/24 18:42:56;;;;;;;17.00;9.13;;;;;;;28.29;83.53;100741.25;20994496;28;20048;-71
2023/08/24 18:53:20;;;;;;;29.55;19.77;;;;;;;28.02;90.67;100764.53;20966882;28;20139;-71
2023/08/24 19:03:43;;;;;;;25.50;15.80;;;;;;;28.06;93.56;100774.25;20976898;28;20052;-71
2023/08/24 19:14:07;;;;;;;16.15;9.68;;;;;;;28.16;97.62;100782.81;20966766;28;20052;-71
2023/08/24 19:24:29;;;;;;;26.88;19.00;;;;;;;27.84;100.00;100780.00;20957954;28;20440;-71
2023/08/24 19:34:53;;;;;;;13.63;9.45;;;;;;;27.82;100.00;100778.34;20961328;28;20044;-71
2023/08/24 19:45:17;;;;;;;12.90;8.27;;;;;;;27.89;100.00;100774.34;20950654;28;20420;-71
2023/08/24 19:55:41;;;;;;;17.23;11.48;;;;;;;27.75;100.00;100772.38;20961410;28;20044;-71
2023/08/24 20:06:04;;;;;;;14.95;9.15;;;;;;;27.28;100.00;100766.81;20964524;28;20045;-71
2023/08/24 20:16:28;;;;;;;15.85;9.32;;;;;;;27.18;100.00;100758.25;20955111;28;20063;-72
2023/08/24 20:26:51;;;;;;;15.10;9.65;;;;;;;26.63;100.00;100765.66;20954892;28;20451;-72
2023/08/24 20:37:15;;;;;;;14.60;9.73;;;;;;;26.89;100.00;100759.81;20962446;28;20064;-72
2023/08/24 20:47:37;;;;;;;19.10;10.98;;;;;;;26.49;100.00;100769.06;20966028;28;20102;-72
2023/08/24 20:58:02;;;;;;;17.30;10.07;;;;;;;26.57;100.00;100771.41;20947160;28;20045;-72
2023/08/24 21:08:25;;;;;;;20.70;10.10;;;;;;;26.30;100.00;100770.06;20945296;28;20675;-72
2023/08/24 21:18:49;;;;;;;12.48;9.35;;;;;;;26.03;100.00;100772.22;20963059;28;20056;-72
2023/08/24 21:29:11;;;;;;;14.20;10.05;;;;;;;25.99;100.00;100770.66;20984560;28;20056;-72
2023/08/24 21:39:35;;;;;;;21.63;10.73;;;;;;;26.23;100.00;100753.19;20957055;28;20045;-72
2023/08/24 21:49:58;;;;;;;16.17;10.15;;;;;;;25.90;100.00;100749.44;20963089;28;20045;-72
2023/08/24 22:00:23;;;;;;;15.02;10.32;;;;;;;25.94;100.00;100751.91;20952960;28;20059;-72
2023/08/24 22:10:45;;;;;;;14.50;10.95;;;;;;;26.22;100.00;100740.63;20942755;28;20080;-72
2023/08/24 22:21:09;;;;;;;14.10;10.20;;;;;;;26.17;100.00;100738.16;20943359;28;20048;-72
2023/08/24 22:31:32;;;;;;;14.75;11.20;;;;;;;26.03;100.00;100735.22;20948826;28;20487;-72
2023/08/24 22:41:56;;;;;;;15.85;10.85;;;;;;;25.93;100.00;100738.47;20946911;28;20049;-72
2023/08/24 22:52:19;;;;;;;13.77;11.25;;;;;;;25.69;100.00;100729.69;20942117;28;20114;-72
2023/08/24 23:02:44;;;;;;;13.27;10.90;;;;;;;25.89;100.00;100718.78;20963051;28;20037;-72
2023/08/24 23:13:07;;;;;;;14.75;11.20;;;;;;;25.76;100.00;100704.09;20958962;28;20040;-72
2023/08/24 23:23:31;;;;;;;15.25;11.73;;;;;;;25.53;100.00;100699.75;20946868;28;20461;-72
2023/08/24 23:33:54;;;;;;;14.90;11.07;;;;;;;25.35;100.00;100703.31;20955166;28;20094;-72
2023/08/24 23:44:18;;;;;;;14.65;12.32;;;;;;;25.44;100.00;100680.38;20972391;28;20053;-72
2023/08/24 23:54:41;;;;;;;13.43;11.95;;;;;;;25.12;100.00;100682.75;20970295;28;20051;-72
